sensor_id;sensor_type;location;lat;lon;timestamp;noise_LAeq;noise_LA_min;noise_LA_max;noise_LA01;noise_LA95
69609;Laerm;56815;52.320;4.858;2024-03-02T00:00:06;42.70;39.42;47.80;;
69609;Laerm;56815;52.320;4.858;2024-03-02T00:00:22;40.53;37.34;47.24;;
69609;Laerm;56815;52.320;4.858;2024-03-02T00:00:32;47.26;37.03;55.17;;
69609;Laerm;56815;52.320;4.858;2024-03-02T00:00:42;41.61;36.68;48.98;;
69609;Laerm;56815;52.320;4.858;2024-03-02T00:00:55;41.60;37.04;46.59;;
69609;Laerm;56815;52.320;4.858;2024-03-02T00:01:05;36.92;35.27;40.59;;
69609;Laerm;56815;52.320;4.858;2024-03-02T00:01:16;37.94;35.60;46.83;;
69609;Laerm;56815;52.320;4.858;2024-03-02T00:01:27;37.61;35.29;47.12;;
69609;Laerm;56815;52.320;4.858;2024-03-02T00:01:37;40.52;36.01;45.36;;
69609;Laerm;56815;52.320;4.858;2024-03-02T00:01:47;39.31;36.70;46.86;;
69609;Laerm;56815;52.320;4.858;2024-03-02T00:01:58;38.97;36.36;42.77;;
69609;Laerm;56815;52.320;4.858;2024-03-02T00:02:08;39.11;36.07;42.70;;
69609;Laerm;56815;52.320;4.858;2024-03-02T00:02:18;41.77;39.06;46.57;;
69609;Laerm;56815;52.320;4.858;2024-03-02T00:02:29;43.60;38.01;50.50;;
69609;Laerm;56815;52.320;4.858;2024-03-02T00:02:42;40.44;36.79;47.85;;
69609;Laerm;56815;52.320;4.858;2024-03-02T00:02:53;39.05;35.53;48.45;;
69609;Laerm;56815;52.320;4.858;2024-03-02T00:03:03;38.11;35.55;45.86;;
69609;Laerm;56815;52.320;4.858;2024-03-02T00:03:14;35.86;32.65;45.08;;
69609;Laerm;56815;52.320;4.858;2024-03-02T00:03:24;34.95;32.80;44.81;;
69609;Laerm;56815;52.320;4.858;2024-03-02T00:03:36;35.46;33.00;39.19;;
69609;Laerm;56815;52.320;4.858;2024-03-02T00:03:46;36.08;33.80;40.60;;
69609;Laerm;56815;52.320;4.858;2024-03-02T00:03:56;36.71;34.00;41.65;;
69609;Laerm;56815;52.320;4.858;2024-03-02T00:04:07;36.82;34.33;43.17;;
69609;Laerm;56815;52.320;4.858;2024-03-02T00:04:17;36.14;34.18;40.88;;
69609;Laerm;56815;52.320;4.858;2024-03-02T00:04:28;36.16;33.91;44.06;;
69609;Laerm;56815;52.320;4.858;2024-03-02T00:04:38;36.21;34.12;39.53;;
69609;Laerm;56815;52.320;4.858;2024-03-02T00:04:49;36.52;34.47;41.25;;
69609;Laerm;56815;52.320;4.858;2024-03-02T00:04:59;37.80;34.56;48.04;;
69609;Laerm;56815;52.320;4.858;2024-03-02T00:05:13;37.18;33.95;41.71;;
69609;Laerm;56815;52.320;4.858;2024-03-02T00:05:24;39.86;36.39;44.99;;
69609;Laerm;56815;52.320;4.858;2024-03-02T00:05:34;36.25;33.38;39.32;;
69609;Laerm;56815;52.320;4.858;2024-03-02T00:05:48;38.53;34.98;45.98;;
69609;Laerm;56815;52.320;4.858;2024-03-02T00:05:59;40.00;35.34;44.72;;
69609;Laerm;56815;52.320;4.858;2024-03-02T00:06:09;39.73;32.64;48.49;;
69609;Laerm;56815;52.320;4.858;2024-03-02T00:06:20;34.36;31.41;40.79;;
69609;Laerm;56815;52.320;4.858;2024-03-02T00:06:30;34.09;31.16;46.27;;
69609;Laerm;56815;52.320;4.858;2024-03-02T00:06:41;32.90;31.01;37.16;;
69609;Laerm;56815;52.320;4.858;2024-03-02T00:06:54;32.62;30.93;37.49;;
69609;Laerm;56815;52.320;4.858;2024-03-02T00:07:06;33.55;31.24;43.06;;
69609;Laerm;56815;52.320;4.858;2024-03-02T00:07:16;32.77;30.63;38.32;;
69609;Laerm;56815;52.320;4.858;2024-03-02T00:07:27;34.36;32.22;43.24;;
69609;Laerm;56815;52.320;4.858;2024-03-02T00:07:38;38.26;33.23;48.05;;
69609;Laerm;56815;52.320;4.858;2024-03-02T00:07:59;35.90;31.68;41.58;;
69609;Laerm;56815;52.320;4.858;2024-03-02T00:08:10;32.61;29.83;45.89;;
69609;Laerm;56815;52.320;4.858;2024-03-02T00:08:24;32.78;31.26;38.01;;
69609;Laerm;56815;52.320;4.858;2024-03-02T00:08:37;33.32;30.66;44.49;;
69609;Laerm;56815;52.320;4.858;2024-03-02T00:08:48;34.56;31.81;42.12;;
69609;Laerm;56815;52.320;4.858;2024-03-02T00:08:58;32.93;31.11;37.81;;
69609;Laerm;56815;52.320;4.858;2024-03-02T00:09:09;32.29;30.15;37.96;;
69609;Laerm;56815;52.320;4.858;2024-03-02T00:09:22;34.41;30.48;39.09;;
69609;Laerm;56815;52.320;4.858;2024-03-02T00:09:33;38.23;32.37;42.72;;
69609;Laerm;56815;52.320;4.858;2024-03-02T00:09:43;39.15;33.98;43.25;;
69609;Laerm;56815;52.320;4.858;2024-03-02T00:09:54;39.82;32.90;46.03;;
69609;Laerm;56815;52.320;4.858;2024-03-02T00:10:08;33.23;31.06;42.75;;
69609;Laerm;56815;52.320;4.858;2024-03-02T00:10:21;33.57;31.46;40.44;;
69609;Laerm;56815;52.320;4.858;2024-03-02T00:10:38;33.88;31.31;40.32;;
69609;Laerm;56815;52.320;4.858;2024-03-02T00:10:51;32.56;30.32;40.60;;
69609;Laerm;56815;52.320;4.858;2024-03-02T00:11:02;31.78;29.93;41.96;;
69609;Laerm;56815;52.320;4.858;2024-03-02T00:11:13;32.66;30.62;36.25;;
69609;Laerm;56815;52.320;4.858;2024-03-02T00:11:25;33.86;31.29;45.54;;
69609;Laerm;56815;52.320;4.858;2024-03-02T00:11:35;32.85;31.12;36.83;;
69609;Laerm;56815;52.320;4.858;2024-03-02T00:11:46;33.18;30.46;42.32;;
69609;Laerm;56815;52.320;4.858;2024-03-02T00:12:00;33.02;30.87;41.31;;
69609;Laerm;56815;52.320;4.858;2024-03-02T00:12:11;32.66;30.76;38.28;;
69609;Laerm;56815;52.320;4.858;2024-03-02T00:12:25;32.56;30.44;39.93;;
69609;Laerm;56815;52.320;4.858;2024-03-02T00:12:36;33.09;30.99;41.81;;
69609;Laerm;56815;52.320;4.858;2024-03-02T00:12:46;33.09;31.15;40.13;;
69609;Laerm;56815;52.320;4.858;2024-03-02T00:12:57;32.82;30.27;39.35;;
69609;Laerm;56815;52.320;4.858;2024-03-02T00:13:08;33.27;30.90;38.86;;
69609;Laerm;56815;52.320;4.858;2024-03-02T00:13:20;33.60;31.30;41.26;;
69609;Laerm;56815;52.320;4.858;2024-03-02T00:13:32;33.59;31.44;45.66;;
69609;Laerm;56815;52.320;4.858;2024-03-02T00:13:43;33.63;31.67;38.95;;
69609;Laerm;56815;52.320;4.858;2024-03-02T00:13:55;34.08;31.85;39.95;;
69609;Laerm;56815;52.320;4.858;2024-03-02T00:14:05;33.44;31.54;36.82;;
69609;Laerm;56815;52.320;4.858;2024-03-02T00:14:15;34.50;31.91;40.42;;
69609;Laerm;56815;52.320;4.858;2024-03-02T00:14:28;35.58;32.72;39.22;;
69609;Laerm;56815;52.320;4.858;2024-03-02T00:14:39;35.73;31.83;40.96;;
69609;Laerm;56815;52.320;4.858;2024-03-02T00:14:49;36.42;32.63;41.70;;
69609;Laerm;56815;52.320;4.858;2024-03-02T00:14:59;34.77;31.30;49.35;;
69609;Laerm;56815;52.320;4.858;2024-03-02T00:15:43;34.30;31.65;41.53;;
69609;Laerm;56815;52.320;4.858;2024-03-02T00:15:56;34.45;31.97;44.54;;
69609;Laerm;56815;52.320;4.858;2024-03-02T00:16:06;35.42;33.47;43.49;;
69609;Laerm;56815;52.320;4.858;2024-03-02T00:16:17;34.70;32.69;38.37;;
69609;Laerm;56815;52.320;4.858;2024-03-02T00:16:31;34.83;32.78;39.84;;
69609;Laerm;56815;52.320;4.858;2024-03-02T00:16:42;37.71;33.84;42.29;;
69609;Laerm;56815;52.320;4.858;2024-03-02T00:16:52;37.17;34.63;44.82;;
69609;Laerm;56815;52.320;4.858;2024-03-02T00:17:05;37.15;34.46;43.04;;
69609;Laerm;56815;52.320;4.858;2024-03-02T00:17:24;36.11;33.57;44.99;;
69609;Laerm;56815;52.320;4.858;2024-03-02T00:17:35;35.99;33.22;42.37;;
69609;Laerm;56815;52.320;4.858;2024-03-02T00:17:45;36.41;34.36;41.75;;
69609;Laerm;56815;52.320;4.858;2024-03-02T00:17:55;39.88;35.63;46.23;;
69609;Laerm;56815;52.320;4.858;2024-03-02T00:18:06;37.51;34.13;42.29;;
69609;Laerm;56815;52.320;4.858;2024-03-02T00:18:35;35.86;33.56;42.86;;
69609;Laerm;56815;52.320;4.858;2024-03-02T00:18:45;36.53;32.49;45.09;;
69609;Laerm;56815;52.320;4.858;2024-03-02T00:18:56;37.55;34.29;43.58;;
69609;Laerm;56815;52.320;4.858;2024-03-02T00:19:06;38.30;35.71;43.86;;
69609;Laerm;56815;52.320;4.858;2024-03-02T00:19:18;38.29;35.26;44.66;;
69609;Laerm;56815;52.320;4.858;2024-03-02T00:19:29;38.14;35.15;48.44;;
69609;Laerm;56815;52.320;4.858;2024-03-02T00:19:39;37.77;35.14;44.04;;
69609;Laerm;56815;52.320;4.858;2024-03-02T00:19:50;37.65;34.39;42.93;;
69609;Laerm;56815;52.320;4.858;2024-03-02T00:20:00;36.79;33.69;41.00;;
69609;Laerm;56815;52.320;4.858;2024-03-02T00:20:13;35.87;32.78;46.22;;
69609;Laerm;56815;52.320;4.858;2024-03-02T00:20:27;34.62;32.66;43.20;;
69609;Laerm;56815;52.320;4.858;2024-03-02T00:20:38;34.46;32.27;41.03;;
69609;Laerm;56815;52.320;4.858;2024-03-02T00:20:48;33.84;31.56;41.50;;
69609;Laerm;56815;52.320;4.858;2024-03-02T00:20:58;33.50;31.44;38.92;;
69609;Laerm;56815;52.320;4.858;2024-03-02T00:21:09;33.71;31.68;41.12;;
69609;Laerm;56815;52.320;4.858;2024-03-02T00:21:20;33.83;31.70;39.02;;
69609;Laerm;56815;52.320;4.858;2024-03-02T00:21:32;34.47;32.53;40.70;;
69609;Laerm;56815;52.320;4.858;2024-03-02T00:21:43;34.98;32.32;42.89;;
69609;Laerm;56815;52.320;4.858;2024-03-02T00:21:53;35.17;33.10;42.22;;
69609;Laerm;56815;52.320;4.858;2024-03-02T00:22:03;35.54;32.91;44.90;;
69609;Laerm;56815;52.320;4.858;2024-03-02T00:22:14;34.14;32.07;41.35;;
69609;Laerm;56815;52.320;4.858;2024-03-02T00:22:24;34.53;32.48;40.63;;
69609;Laerm;56815;52.320;4.858;2024-03-02T00:22:35;34.16;32.19;43.02;;
69609;Laerm;56815;52.320;4.858;2024-03-02T00:22:47;34.48;32.11;43.98;;
69609;Laerm;56815;52.320;4.858;2024-03-02T00:23:00;34.14;31.72;38.86;;
69609;Laerm;56815;52.320;4.858;2024-03-02T00:23:16;34.60;32.28;42.81;;
69609;Laerm;56815;52.320;4.858;2024-03-02T00:23:27;33.71;31.59;40.33;;
69609;Laerm;56815;52.320;4.858;2024-03-02T00:23:39;34.57;31.81;45.61;;
69609;Laerm;56815;52.320;4.858;2024-03-02T00:23:49;34.48;31.64;40.60;;
69609;Laerm;56815;52.320;4.858;2024-03-02T00:24:06;34.69;31.93;42.06;;
69609;Laerm;56815;52.320;4.858;2024-03-02T00:24:30;35.84;32.43;43.92;;
69609;Laerm;56815;52.320;4.858;2024-03-02T00:24:41;34.96;31.44;43.83;;
69609;Laerm;56815;52.320;4.858;2024-03-02T00:24:52;34.90;32.43;41.92;;
69609;Laerm;56815;52.320;4.858;2024-03-02T00:25:03;34.99;32.21;39.70;;
69609;Laerm;56815;52.320;4.858;2024-03-02T00:25:13;35.45;32.07;41.78;;
69609;Laerm;56815;52.320;4.858;2024-03-02T00:25:24;35.52;32.68;39.95;;
69609;Laerm;56815;52.320;4.858;2024-03-02T00:25:37;35.25;32.66;40.48;;
69609;Laerm;56815;52.320;4.858;2024-03-02T00:25:52;35.57;32.77;42.34;;
69609;Laerm;56815;52.320;4.858;2024-03-02T00:26:06;36.76;32.77;46.95;;
69609;Laerm;56815;52.320;4.858;2024-03-02T00:26:16;37.61;34.76;46.20;;
69609;Laerm;56815;52.320;4.858;2024-03-02T00:26:26;37.12;34.13;42.54;;
69609;Laerm;56815;52.320;4.858;2024-03-02T00:26:37;34.91;32.47;40.53;;
69609;Laerm;56815;52.320;4.858;2024-03-02T00:26:47;34.76;32.20;44.92;;
69609;Laerm;56815;52.320;4.858;2024-03-02T00:26:57;34.35;31.97;42.02;;
69609;Laerm;56815;52.320;4.858;2024-03-02T00:27:07;34.62;32.39;39.70;;
69609;Laerm;56815;52.320;4.858;2024-03-02T00:27:21;33.92;31.80;45.54;;
69609;Laerm;56815;52.320;4.858;2024-03-02T00:27:31;33.66;31.84;40.83;;
69609;Laerm;56815;52.320;4.858;2024-03-02T00:27:42;33.61;31.51;39.36;;
69609;Laerm;56815;52.320;4.858;2024-03-02T00:27:52;36.27;32.75;50.63;;
69609;Laerm;56815;52.320;4.858;2024-03-02T00:28:02;34.95;32.81;40.64;;
69609;Laerm;56815;52.320;4.858;2024-03-02T00:28:19;33.49;31.12;46.15;;
69609;Laerm;56815;52.320;4.858;2024-03-02T00:28:30;32.79;30.76;38.24;;
69609;Laerm;56815;52.320;4.858;2024-03-02T00:28:44;33.03;30.80;43.08;;
69609;Laerm;56815;52.320;4.858;2024-03-02T00:28:55;32.49;30.62;37.80;;
69609;Laerm;56815;52.320;4.858;2024-03-02T00:29:07;33.45;31.15;42.97;;
69609;Laerm;56815;52.320;4.858;2024-03-02T00:29:23;34.61;31.60;43.09;;
69609;Laerm;56815;52.320;4.858;2024-03-02T00:29:34;33.68;31.19;41.75;;
69609;Laerm;56815;52.320;4.858;2024-03-02T00:29:45;34.60;31.08;48.16;;
69609;Laerm;56815;52.320;4.858;2024-03-02T00:29:55;36.47;30.91;47.05;;
69609;Laerm;56815;52.320;4.858;2024-03-02T00:31:09;40.56;34.68;61.26;;
69609;Laerm;56815;52.320;4.858;2024-03-02T00:31:21;35.39;32.06;43.49;;
69609;Laerm;56815;52.320;4.858;2024-03-02T00:31:32;36.23;34.06;45.34;;
69609;Laerm;56815;52.320;4.858;2024-03-02T00:31:42;35.61;33.33;40.99;;
69609;Laerm;56815;52.320;4.858;2024-03-02T00:31:52;37.25;34.00;46.51;;
69609;Laerm;56815;52.320;4.858;2024-03-02T00:32:03;35.87;33.44;42.95;;
69609;Laerm;56815;52.320;4.858;2024-03-02T00:32:17;37.46;34.24;44.07;;
69609;Laerm;56815;52.320;4.858;2024-03-02T00:32:27;36.66;33.40;44.30;;
69609;Laerm;56815;52.320;4.858;2024-03-02T00:32:38;37.30;33.74;45.29;;
69609;Laerm;56815;52.320;4.858;2024-03-02T00:32:48;38.06;35.16;46.38;;
69609;Laerm;56815;52.320;4.858;2024-03-02T00:33:04;37.94;35.07;48.31;;
69609;Laerm;56815;52.320;4.858;2024-03-02T00:33:17;36.99;33.38;46.90;;
69609;Laerm;56815;52.320;4.858;2024-03-02T00:33:31;38.38;33.65;50.38;;
69609;Laerm;56815;52.320;4.858;2024-03-02T00:33:42;36.11;32.94;48.92;;
69609;Laerm;56815;52.320;4.858;2024-03-02T00:33:53;36.35;33.03;44.73;;
69609;Laerm;56815;52.320;4.858;2024-03-02T00:34:03;35.91;32.75;47.12;;
69609;Laerm;56815;52.320;4.858;2024-03-02T00:34:15;36.54;33.42;47.48;;
69609;Laerm;56815;52.320;4.858;2024-03-02T00:34:28;35.16;32.91;43.85;;
69609;Laerm;56815;52.320;4.858;2024-03-02T00:34:39;36.43;32.94;47.34;;
69609;Laerm;56815;52.320;4.858;2024-03-02T00:34:49;35.29;32.05;45.06;;
69609;Laerm;56815;52.320;4.858;2024-03-02T00:35:00;35.72;32.51;48.74;;
69609;Laerm;56815;52.320;4.858;2024-03-02T00:35:10;35.87;33.41;45.33;;
69609;Laerm;56815;52.320;4.858;2024-03-02T00:35:21;36.65;33.31;49.81;;
69609;Laerm;56815;52.320;4.858;2024-03-02T00:35:33;36.96;33.50;49.97;;
69609;Laerm;56815;52.320;4.858;2024-03-02T00:35:46;36.24;33.80;48.31;;
69609;Laerm;56815;52.320;4.858;2024-03-02T00:35:56;34.97;32.51;38.57;;
69609;Laerm;56815;52.320;4.858;2024-03-02T00:36:06;35.15;32.97;49.59;;
69609;Laerm;56815;52.320;4.858;2024-03-02T00:36:22;34.99;32.39;45.79;;
69609;Laerm;56815;52.320;4.858;2024-03-02T00:36:32;34.10;31.66;42.70;;
69609;Laerm;56815;52.320;4.858;2024-03-02T00:36:43;33.93;30.34;47.40;;
69609;Laerm;56815;52.320;4.858;2024-03-02T00:36:53;33.07;31.08;41.56;;
69609;Laerm;56815;52.320;4.858;2024-03-02T00:37:03;35.05;31.08;47.11;;
69609;Laerm;56815;52.320;4.858;2024-03-02T00:37:14;35.67;31.11;47.70;;
69609;Laerm;56815;52.320;4.858;2024-03-02T00:37:24;34.18;31.43;46.87;;
69609;Laerm;56815;52.320;4.858;2024-03-02T00:37:34;34.46;30.62;49.81;;
69609;Laerm;56815;52.320;4.858;2024-03-02T00:37:45;33.26;30.61;41.66;;
69609;Laerm;56815;52.320;4.858;2024-03-02T00:37:55;33.26;31.23;40.39;;
69609;Laerm;56815;52.320;4.858;2024-03-02T00:38:05;33.30;31.47;40.51;;
69609;Laerm;56815;52.320;4.858;2024-03-02T00:38:16;33.20;31.31;40.78;;
69609;Laerm;56815;52.320;4.858;2024-03-02T00:38:27;34.44;31.50;46.87;;
69609;Laerm;56815;52.320;4.858;2024-03-02T00:38:50;34.72;31.60;44.36;;
69609;Laerm;56815;52.320;4.858;2024-03-02T00:39:01;34.11;31.60;42.02;;
69609;Laerm;56815;52.320;4.858;2024-03-02T00:39:12;34.58;32.16;47.16;;
69609;Laerm;56815;52.320;4.858;2024-03-02T00:39:24;33.57;31.82;41.03;;
69609;Laerm;56815;52.320;4.858;2024-03-02T00:39:34;33.50;31.36;42.12;;
69609;Laerm;56815;52.320;4.858;2024-03-02T00:39:48;34.16;30.95;46.41;;
69609;Laerm;56815;52.320;4.858;2024-03-02T00:39:58;33.77;31.27;41.49;;
69609;Laerm;56815;52.320;4.858;2024-03-02T00:40:09;34.16;31.73;44.41;;
69609;Laerm;56815;52.320;4.858;2024-03-02T00:40:20;35.72;32.93;50.52;;
69609;Laerm;56815;52.320;4.858;2024-03-02T00:40:31;34.66;31.80;46.34;;
69609;Laerm;56815;52.320;4.858;2024-03-02T00:40:42;33.75;31.74;40.60;;
69609;Laerm;56815;52.320;4.858;2024-03-02T00:40:52;33.78;31.40;44.29;;
69609;Laerm;56815;52.320;4.858;2024-03-02T00:41:06;34.02;31.93;41.84;;
69609;Laerm;56815;52.320;4.858;2024-03-02T00:41:30;34.20;31.52;46.05;;
69609;Laerm;56815;52.320;4.858;2024-03-02T00:41:40;34.26;31.69;44.18;;
69609;Laerm;56815;52.320;4.858;2024-03-02T00:41:52;35.89;33.26;44.18;;
69609;Laerm;56815;52.320;4.858;2024-03-02T00:42:02;34.79;32.70;42.88;;
69609;Laerm;56815;52.320;4.858;2024-03-02T00:42:13;35.25;32.39;49.36;;
69609;Laerm;56815;52.320;4.858;2024-03-02T00:42:23;34.19;32.09;41.24;;
69609;Laerm;56815;52.320;4.858;2024-03-02T00:42:34;33.89;31.79;42.53;;
69609;Laerm;56815;52.320;4.858;2024-03-02T00:42:45;34.05;31.33;47.60;;
69609;Laerm;56815;52.320;4.858;2024-03-02T00:42:55;33.06;31.17;40.85;;
69609;Laerm;56815;52.320;4.858;2024-03-02T00:43:05;34.44;31.50;44.33;;
69609;Laerm;56815;52.320;4.858;2024-03-02T00:44:04;35.68;32.86;48.78;;
69609;Laerm;56815;52.320;4.858;2024-03-02T00:44:16;34.54;32.64;38.46;;
69609;Laerm;56815;52.320;4.858;2024-03-02T00:44:26;37.05;33.61;49.28;;
69609;Laerm;56815;52.320;4.858;2024-03-02T00:44:36;43.09;31.79;50.49;;
69609;Laerm;56815;52.320;4.858;2024-03-02T00:44:47;34.96;31.75;49.15;;
69609;Laerm;56815;52.320;4.858;2024-03-02T00:44:58;34.52;31.92;44.62;;
69609;Laerm;56815;52.320;4.858;2024-03-02T00:45:08;36.02;32.00;42.42;;
69609;Laerm;56815;52.320;4.858;2024-03-02T00:45:18;34.56;31.50;47.56;;
69609;Laerm;56815;52.320;4.858;2024-03-02T00:45:29;35.00;32.50;47.70;;
69609;Laerm;56815;52.320;4.858;2024-03-02T00:45:39;33.68;30.70;49.71;;
69609;Laerm;56815;52.320;4.858;2024-03-02T00:45:50;34.09;31.69;43.77;;
69609;Laerm;56815;52.320;4.858;2024-03-02T00:46:00;34.53;31.62;47.60;;
69609;Laerm;56815;52.320;4.858;2024-03-02T00:46:12;33.08;31.27;38.70;;
69609;Laerm;56815;52.320;4.858;2024-03-02T00:46:22;33.03;31.12;37.61;;
69609;Laerm;56815;52.320;4.858;2024-03-02T00:46:44;33.57;31.13;38.11;;
69609;Laerm;56815;52.320;4.858;2024-03-02T00:46:54;33.52;31.15;38.83;;
69609;Laerm;56815;52.320;4.858;2024-03-02T00:47:04;33.07;31.33;39.33;;
69609;Laerm;56815;52.320;4.858;2024-03-02T00:47:14;33.59;31.71;40.26;;
69609;Laerm;56815;52.320;4.858;2024-03-02T00:47:25;33.98;31.45;43.59;;
69609;Laerm;56815;52.320;4.858;2024-03-02T00:47:38;33.80;31.85;38.05;;
69609;Laerm;56815;52.320;4.858;2024-03-02T00:47:49;34.51;31.44;46.84;;
69609;Laerm;56815;52.320;4.858;2024-03-02T00:47:59;34.52;32.15;42.55;;
69609;Laerm;56815;52.320;4.858;2024-03-02T00:48:10;34.86;32.01;42.50;;
69609;Laerm;56815;52.320;4.858;2024-03-02T00:48:20;34.72;31.80;46.63;;
69609;Laerm;56815;52.320;4.858;2024-03-02T00:48:31;34.56;32.35;38.50;;
69609;Laerm;56815;52.320;4.858;2024-03-02T00:48:47;34.84;32.84;39.20;;
69609;Laerm;56815;52.320;4.858;2024-03-02T00:48:59;34.29;31.44;38.42;;
69609;Laerm;56815;52.320;4.858;2024-03-02T00:49:32;35.66;32.61;51.60;;
69609;Laerm;56815;52.320;4.858;2024-03-02T00:49:42;35.20;32.80;44.93;;
69609;Laerm;56815;52.320;4.858;2024-03-02T00:49:53;35.40;32.87;40.86;;
69609;Laerm;56815;52.320;4.858;2024-03-02T00:50:03;35.70;32.88;47.90;;
69609;Laerm;56815;52.320;4.858;2024-03-02T00:50:14;35.75;32.95;48.77;;
69609;Laerm;56815;52.320;4.858;2024-03-02T00:50:24;35.64;33.11;44.15;;
69609;Laerm;56815;52.320;4.858;2024-03-02T00:50:34;34.92;32.64;40.82;;
69609;Laerm;56815;52.320;4.858;2024-03-02T00:50:45;34.73;32.81;38.61;;
69609;Laerm;56815;52.320;4.858;2024-03-02T00:50:56;34.48;32.19;41.41;;
69609;Laerm;56815;52.320;4.858;2024-03-02T00:51:07;35.29;32.54;45.19;;
69609;Laerm;56815;52.320;4.858;2024-03-02T00:51:18;34.45;32.65;38.16;;
69609;Laerm;56815;52.320;4.858;2024-03-02T00:51:32;33.86;32.07;39.95;;
69609;Laerm;56815;52.320;4.858;2024-03-02T00:51:44;34.50;31.98;44.96;;
69609;Laerm;56815;52.320;4.858;2024-03-02T00:51:56;35.38;32.31;47.64;;
69609;Laerm;56815;52.320;4.858;2024-03-02T00:52:06;35.11;33.06;40.81;;
69609;Laerm;56815;52.320;4.858;2024-03-02T00:52:17;35.16;32.56;46.76;;
69609;Laerm;56815;52.320;4.858;2024-03-02T00:52:27;34.47;31.62;42.69;;
69609;Laerm;56815;52.320;4.858;2024-03-02T00:52:38;33.75;31.39;43.44;;
69609;Laerm;56815;52.320;4.858;2024-03-02T00:52:49;32.67;30.89;34.57;;
69609;Laerm;56815;52.320;4.858;2024-03-02T00:52:59;33.50;30.68;43.93;;
69609;Laerm;56815;52.320;4.858;2024-03-02T00:53:10;32.86;30.54;40.99;;
69609;Laerm;56815;52.320;4.858;2024-03-02T00:53:23;33.05;30.87;43.53;;
69609;Laerm;56815;52.320;4.858;2024-03-02T00:53:36;33.04;30.94;38.03;;
69609;Laerm;56815;52.320;4.858;2024-03-02T00:53:47;34.56;31.40;49.29;;
69609;Laerm;56815;52.320;4.858;2024-03-02T00:53:58;36.75;31.05;57.19;;
69609;Laerm;56815;52.320;4.858;2024-03-02T00:54:09;33.71;31.29;41.94;;
69609;Laerm;56815;52.320;4.858;2024-03-02T00:54:31;34.34;31.24;44.73;;
69609;Laerm;56815;52.320;4.858;2024-03-02T00:54:41;33.95;31.78;47.46;;
69609;Laerm;56815;52.320;4.858;2024-03-02T00:54:52;34.04;31.90;38.02;;
69609;Laerm;56815;52.320;4.858;2024-03-02T00:55:02;35.13;32.59;44.58;;
69609;Laerm;56815;52.320;4.858;2024-03-02T00:55:15;35.44;32.62;46.19;;
69609;Laerm;56815;52.320;4.858;2024-03-02T00:55:26;37.64;32.97;42.55;;
69609;Laerm;56815;52.320;4.858;2024-03-02T00:55:36;34.19;31.76;44.63;;
69609;Laerm;56815;52.320;4.858;2024-03-02T00:55:47;34.02;32.06;46.27;;
69609;Laerm;56815;52.320;4.858;2024-03-02T00:55:59;33.82;31.82;41.01;;
69609;Laerm;56815;52.320;4.858;2024-03-02T00:56:12;33.78;31.90;40.41;;
69609;Laerm;56815;52.320;4.858;2024-03-02T00:56:23;33.48;31.41;43.75;;
69609;Laerm;56815;52.320;4.858;2024-03-02T00:56:33;33.64;31.32;48.43;;
69609;Laerm;56815;52.320;4.858;2024-03-02T00:56:44;32.95;30.98;38.34;;
69609;Laerm;56815;52.320;4.858;2024-03-02T00:56:55;33.20;31.23;40.59;;
69609;Laerm;56815;52.320;4.858;2024-03-02T00:57:06;34.56;31.73;47.35;;
69609;Laerm;56815;52.320;4.858;2024-03-02T00:57:20;34.24;32.17;44.19;;
69609;Laerm;56815;52.320;4.858;2024-03-02T00:57:30;34.12;32.25;40.67;;
69609;Laerm;56815;52.320;4.858;2024-03-02T00:57:44;34.27;31.99;45.17;;
69609;Laerm;56815;52.320;4.858;2024-03-02T00:57:55;33.07;30.99;37.62;;
69609;Laerm;56815;52.320;4.858;2024-03-02T00:58:05;33.61;30.93;45.81;;
69609;Laerm;56815;52.320;4.858;2024-03-02T00:58:15;33.27;31.19;40.94;;
69609;Laerm;56815;52.320;4.858;2024-03-02T00:58:26;32.73;30.89;37.92;;
69609;Laerm;56815;52.320;4.858;2024-03-02T00:58:36;33.84;31.08;47.16;;
69609;Laerm;56815;52.320;4.858;2024-03-02T00:58:46;33.64;31.13;45.61;;
69609;Laerm;56815;52.320;4.858;2024-03-02T00:58:57;33.03;30.69;45.12;;
69609;Laerm;56815;52.320;4.858;2024-03-02T00:59:07;32.97;29.98;43.92;;
69609;Laerm;56815;52.320;4.858;2024-03-02T00:59:18;33.03;30.19;45.87;;
69609;Laerm;56815;52.320;4.858;2024-03-02T00:59:28;33.19;30.71;39.13;;
69609;Laerm;56815;52.320;4.858;2024-03-02T00:59:40;34.28;31.82;39.10;;
69609;Laerm;56815;52.320;4.858;2024-03-02T00:59:50;34.95;32.58;39.58;;
69609;Laerm;56815;52.320;4.858;2024-03-02T01:00:00;41.13;31.77;51.18;;
69609;Laerm;56815;52.320;4.858;2024-03-02T01:00:11;33.98;31.35;37.79;;
69609;Laerm;56815;52.320;4.858;2024-03-02T01:00:25;34.53;32.03;40.52;;
69609;Laerm;56815;52.320;4.858;2024-03-02T01:00:35;33.92;31.87;37.80;;
69609;Laerm;56815;52.320;4.858;2024-03-02T01:00:45;34.09;31.50;39.42;;
69609;Laerm;56815;52.320;4.858;2024-03-02T01:00:56;35.10;31.39;46.41;;
69609;Laerm;56815;52.320;4.858;2024-03-02T01:01:06;34.10;31.92;37.79;;
69609;Laerm;56815;52.320;4.858;2024-03-02T01:01:17;34.16;31.99;40.89;;
69609;Laerm;56815;52.320;4.858;2024-03-02T01:01:28;34.02;31.71;45.83;;
69609;Laerm;56815;52.320;4.858;2024-03-02T01:01:38;34.75;31.68;46.31;;
69609;Laerm;56815;52.320;4.858;2024-03-02T01:01:48;34.07;31.80;41.77;;
69609;Laerm;56815;52.320;4.858;2024-03-02T01:01:59;34.01;30.75;42.86;;
69609;Laerm;56815;52.320;4.858;2024-03-02T01:02:09;33.80;31.29;37.02;;
69609;Laerm;56815;52.320;4.858;2024-03-02T01:02:20;35.96;32.05;43.61;;
69609;Laerm;56815;52.320;4.858;2024-03-02T01:02:30;34.63;31.86;42.53;;
69609;Laerm;56815;52.320;4.858;2024-03-02T01:02:40;33.61;30.94;38.03;;
69609;Laerm;56815;52.320;4.858;2024-03-02T01:02:52;33.56;31.19;46.36;;
69609;Laerm;56815;52.320;4.858;2024-03-02T01:03:02;33.63;31.91;38.26;;
69609;Laerm;56815;52.320;4.858;2024-03-02T01:03:14;33.47;31.25;39.57;;
69609;Laerm;56815;52.320;4.858;2024-03-02T01:03:24;35.25;32.45;48.55;;
69609;Laerm;56815;52.320;4.858;2024-03-02T01:03:34;34.99;32.50;43.45;;
69609;Laerm;56815;52.320;4.858;2024-03-02T01:03:45;34.93;32.49;39.62;;
69609;Laerm;56815;52.320;4.858;2024-03-02T01:03:55;34.25;31.64;39.19;;
69609;Laerm;56815;52.320;4.858;2024-03-02T01:04:06;34.35;31.75;43.67;;
69609;Laerm;56815;52.320;4.858;2024-03-02T01:04:16;35.29;32.06;51.38;;
69609;Laerm;56815;52.320;4.858;2024-03-02T01:04:26;34.17;31.52;46.11;;
69609;Laerm;56815;52.320;4.858;2024-03-02T01:04:36;33.93;31.56;46.56;;
69609;Laerm;56815;52.320;4.858;2024-03-02T01:04:47;34.41;31.86;41.52;;
69609;Laerm;56815;52.320;4.858;2024-03-02T01:04:57;35.74;32.44;50.54;;
69609;Laerm;56815;52.320;4.858;2024-03-02T01:05:07;34.32;32.56;38.64;;
69609;Laerm;56815;52.320;4.858;2024-03-02T01:05:18;33.68;31.70;39.64;;
69609;Laerm;56815;52.320;4.858;2024-03-02T01:05:28;33.98;32.26;37.28;;
69609;Laerm;56815;52.320;4.858;2024-03-02T01:05:42;34.47;32.24;40.76;;
69609;Laerm;56815;52.320;4.858;2024-03-02T01:05:52;35.64;32.36;48.89;;
69609;Laerm;56815;52.320;4.858;2024-03-02T01:06:03;34.94;32.98;39.52;;
69609;Laerm;56815;52.320;4.858;2024-03-02T01:06:13;33.92;31.89;39.66;;
69609;Laerm;56815;52.320;4.858;2024-03-02T01:06:23;33.88;31.95;37.84;;
69609;Laerm;56815;52.320;4.858;2024-03-02T01:06:34;33.48;31.25;40.69;;
69609;Laerm;56815;52.320;4.858;2024-03-02T01:06:45;33.49;31.93;37.15;;